sensor_id;sensor_type;location;lat;lon;timestamp;P1;durP1;ratioP1;P2;durP2;ratioP2
25331;SDS011;13284;52.748;13.452;2023-07-02T00:01:35;1.90;;;1.80;;
25331;SDS011;13284;52.748;13.452;2023-07-02T00:04:01;1.20;;;1.10;;
25331;SDS011;13284;52.748;13.452;2023-07-02T00:06:26;1.40;;;1.30;;
25331;SDS011;13284;52.748;13.452;2023-07-02T00:08:52;1.50;;;1.40;;
25331;SDS011;13284;52.748;13.452;2023-07-02T00:11:17;1.50;;;1.40;;
25331;SDS011;13284;52.748;13.452;2023-07-02T00:13:43;2.00;;;1.80;;
25331;SDS011;13284;52.748;13.452;2023-07-02T00:16:08;1.93;;;1.83;;
25331;SDS011;13284;52.748;13.452;2023-07-02T00:18:34;1.70;;;1.60;;
25331;SDS011;13284;52.748;13.452;2023-07-02T00:21:00;1.90;;;1.80;;
25331;SDS011;13284;52.748;13.452;2023-07-02T00:23:27;2.43;;;2.23;;
25331;SDS011;13284;52.748;13.452;2023-07-02T00:25:53;2.17;;;1.80;;
25331;SDS011;13284;52.748;13.452;2023-07-02T00:28:19;2.30;;;2.03;;
25331;SDS011;13284;52.748;13.452;2023-07-02T00:30:44;2.20;;;2.00;;
25331;SDS011;13284;52.748;13.452;2023-07-02T00:33:10;2.10;;;1.90;;
25331;SDS011;13284;52.748;13.452;2023-07-02T00:35:35;3.00;;;1.97;;
25331;SDS011;13284;52.748;13.452;2023-07-02T00:38:01;2.43;;;2.23;;
25331;SDS011;13284;52.748;13.452;2023-07-02T00:40:27;2.03;;;1.93;;
25331;SDS011;13284;52.748;13.452;2023-07-02T00:42:52;2.17;;;2.00;;
25331;SDS011;13284;52.748;13.452;2023-07-02T00:45:18;3.07;;;2.10;;
25331;SDS011;13284;52.748;13.452;2023-07-02T00:47:43;2.60;;;2.40;;
25331;SDS011;13284;52.748;13.452;2023-07-02T00:50:13;2.73;;;2.53;;
25331;SDS011;13284;52.748;13.452;2023-07-02T00:52:39;2.23;;;2.03;;
25331;SDS011;13284;52.748;13.452;2023-07-02T00:55:05;2.83;;;2.63;;
25331;SDS011;13284;52.748;13.452;2023-07-02T00:57:31;2.40;;;2.20;;
25331;SDS011;13284;52.748;13.452;2023-07-02T00:59:57;2.37;;;2.00;;
25331;SDS011;13284;52.748;13.452;2023-07-02T01:02:25;4.40;;;2.53;;
25331;SDS011;13284;52.748;13.452;2023-07-02T01:04:51;2.60;;;2.40;;
25331;SDS011;13284;52.748;13.452;2023-07-02T01:07:22;2.30;;;2.10;;
25331;SDS011;13284;52.748;13.452;2023-07-02T01:09:48;3.03;;;2.23;;
25331;SDS011;13284;52.748;13.452;2023-07-02T01:12:14;2.40;;;2.23;;
25331;SDS011;13284;52.748;13.452;2023-07-02T01:14:43;3.33;;;2.60;;
25331;SDS011;13284;52.748;13.452;2023-07-02T01:17:12;2.63;;;2.43;;
25331;SDS011;13284;52.748;13.452;2023-07-02T01:22:09;5.23;;;2.87;;
25331;SDS011;13284;52.748;13.452;2023-07-02T01:24:36;3.57;;;3.00;;
25331;SDS011;13284;52.748;13.452;2023-07-02T01:27:04;3.90;;;3.50;;
25331;SDS011;13284;52.748;13.452;2023-07-02T01:29:30;4.90;;;3.67;;
25331;SDS011;13284;52.748;13.452;2023-07-02T01:31:56;4.33;;;3.63;;
25331;SDS011;13284;52.748;13.452;2023-07-02T01:34:21;3.80;;;3.50;;
25331;SDS011;13284;52.748;13.452;2023-07-02T01:36:47;3.70;;;3.40;;
25331;SDS011;13284;52.748;13.452;2023-07-02T01:39:12;4.70;;;4.30;;
25331;SDS011;13284;52.748;13.452;2023-07-02T01:41:42;5.03;;;4.30;;
25331;SDS011;13284;52.748;13.452;2023-07-02T01:44:14;5.40;;;4.17;;
25331;SDS011;13284;52.748;13.452;2023-07-02T01:46:39;4.57;;;4.17;;
25331;SDS011;13284;52.748;13.452;2023-07-02T01:49:05;4.00;;;3.70;;
25331;SDS011;13284;52.748;13.452;2023-07-02T01:51:30;4.47;;;4.07;;
25331;SDS011;13284;52.748;13.452;2023-07-02T01:53:56;4.87;;;4.47;;
25331;SDS011;13284;52.748;13.452;2023-07-02T01:56:21;4.37;;;3.97;;
25331;SDS011;13284;52.748;13.452;2023-07-02T01:58:47;4.87;;;4.17;;
25331;SDS011;13284;52.748;13.452;2023-07-02T02:01:12;4.40;;;3.97;;
25331;SDS011;13284;52.748;13.452;2023-07-02T02:03:38;4.20;;;3.80;;
25331;SDS011;13284;52.748;13.452;2023-07-02T02:06:03;4.80;;;4.20;;
25331;SDS011;13284;52.748;13.452;2023-07-02T02:08:31;4.47;;;4.07;;
25331;SDS011;13284;52.748;13.452;2023-07-02T02:10:57;4.60;;;4.23;;
25331;SDS011;13284;52.748;13.452;2023-07-02T02:13:22;4.30;;;3.90;;
25331;SDS011;13284;52.748;13.452;2023-07-02T02:15:48;6.50;;;4.70;;
25331;SDS011;13284;52.748;13.452;2023-07-02T02:18:14;6.50;;;4.53;;
25331;SDS011;13284;52.748;13.452;2023-07-02T02:20:39;4.27;;;3.87;;
25331;SDS011;13284;52.748;13.452;2023-07-02T02:23:05;6.33;;;4.53;;
25331;SDS011;13284;52.748;13.452;2023-07-02T02:25:30;4.33;;;3.93;;
25331;SDS011;13284;52.748;13.452;2023-07-02T02:27:56;4.13;;;3.73;;
25331;SDS011;13284;52.748;13.452;2023-07-02T02:30:21;4.33;;;4.03;;
25331;SDS011;13284;52.748;13.452;2023-07-02T02:32:47;4.40;;;4.00;;
25331;SDS011;13284;52.748;13.452;2023-07-02T02:35:14;5.40;;;5.00;;
25331;SDS011;13284;52.748;13.452;2023-07-02T02:37:40;6.83;;;4.80;;
25331;SDS011;13284;52.748;13.452;2023-07-02T02:40:06;5.40;;;4.03;;
25331;SDS011;13284;52.748;13.452;2023-07-02T02:42:34;5.70;;;5.10;;
25331;SDS011;13284;52.748;13.452;2023-07-02T02:44:59;4.73;;;4.27;;
25331;SDS011;13284;52.748;13.452;2023-07-02T02:47:31;4.73;;;4.23;;
25331;SDS011;13284;52.748;13.452;2023-07-02T02:49:56;6.47;;;4.83;;
25331;SDS011;13284;52.748;13.452;2023-07-02T02:52:22;6.13;;;5.50;;
25331;SDS011;13284;52.748;13.452;2023-07-02T02:54:47;5.80;;;5.17;;
25331;SDS011;13284;52.748;13.452;2023-07-02T02:57:14;6.10;;;5.50;;
25331;SDS011;13284;52.748;13.452;2023-07-02T02:59:40;5.40;;;4.73;;
25331;SDS011;13284;52.748;13.452;2023-07-02T03:02:05;5.60;;;5.10;;
25331;SDS011;13284;52.748;13.452;2023-07-02T03:04:31;5.93;;;5.20;;
25331;SDS011;13284;52.748;13.452;2023-07-02T03:06:56;6.53;;;5.10;;
25331;SDS011;13284;52.748;13.452;2023-07-02T03:09:22;6.00;;;5.30;;
25331;SDS011;13284;52.748;13.452;2023-07-02T03:11:47;5.23;;;4.73;;
25331;SDS011;13284;52.748;13.452;2023-07-02T03:14:13;9.03;;;5.90;;
25331;SDS011;13284;52.748;13.452;2023-07-02T03:16:40;8.50;;;5.63;;
25331;SDS011;13284;52.748;13.452;2023-07-02T03:19:06;5.73;;;5.10;;
25331;SDS011;13284;52.748;13.452;2023-07-02T03:21:31;8.10;;;5.70;;
25331;SDS011;13284;52.748;13.452;2023-07-02T03:23:57;5.80;;;5.30;;
25331;SDS011;13284;52.748;13.452;2023-07-02T03:26:23;5.77;;;5.27;;
25331;SDS011;13284;52.748;13.452;2023-07-02T03:28:49;5.53;;;5.03;;
25331;SDS011;13284;52.748;13.452;2023-07-02T03:31:14;6.10;;;5.50;;
25331;SDS011;13284;52.748;13.452;2023-07-02T03:33:40;5.80;;;4.90;;
25331;SDS011;13284;52.748;13.452;2023-07-02T03:36:05;5.23;;;4.80;;
25331;SDS011;13284;52.748;13.452;2023-07-02T03:38:31;5.93;;;5.10;;
25331;SDS011;13284;52.748;13.452;2023-07-02T03:40:57;7.70;;;5.47;;
25331;SDS011;13284;52.748;13.452;2023-07-02T03:43:22;5.17;;;4.67;;
25331;SDS011;13284;52.748;13.452;2023-07-02T03:45:49;6.73;;;5.10;;
25331;SDS011;13284;52.748;13.452;2023-07-02T03:48:16;5.73;;;4.83;;
25331;SDS011;13284;52.748;13.452;2023-07-02T03:50:41;6.37;;;5.80;;
25331;SDS011;13284;52.748;13.452;2023-07-02T03:53:07;5.03;;;4.13;;
25331;SDS011;13284;52.748;13.452;2023-07-02T03:55:32;5.40;;;4.90;;
25331;SDS011;13284;52.748;13.452;2023-07-02T03:57:58;6.83;;;4.90;;
25331;SDS011;13284;52.748;13.452;2023-07-02T04:00:23;4.80;;;4.30;;
25331;SDS011;13284;52.748;13.452;2023-07-02T04:02:49;4.70;;;4.30;;
25331;SDS011;13284;52.748;13.452;2023-07-02T04:05:14;5.10;;;4.60;;
25331;SDS011;13284;52.748;13.452;2023-07-02T04:07:40;9.03;;;5.07;;
25331;SDS011;13284;52.748;13.452;2023-07-02T04:10:06;6.63;;;5.50;;
25331;SDS011;13284;52.748;13.452;2023-07-02T04:12:32;11.27;;;5.53;;
25331;SDS011;13284;52.748;13.452;2023-07-02T04:14:57;5.30;;;4.80;;
25331;SDS011;13284;52.748;13.452;2023-07-02T04:17:23;5.00;;;4.37;;
25331;SDS011;13284;52.748;13.452;2023-07-02T04:19:48;4.57;;;4.17;;
25331;SDS011;13284;52.748;13.452;2023-07-02T04:22:14;5.63;;;4.57;;
25331;SDS011;13284;52.748;13.452;2023-07-02T04:24:39;6.03;;;5.20;;
25331;SDS011;13284;52.748;13.452;2023-07-02T04:27:05;6.73;;;5.60;;
25331;SDS011;13284;52.748;13.452;2023-07-02T04:29:30;5.10;;;4.60;;
25331;SDS011;13284;52.748;13.452;2023-07-02T04:31:56;5.00;;;4.60;;
25331;SDS011;13284;52.748;13.452;2023-07-02T04:34:21;5.23;;;4.47;;
25331;SDS011;13284;52.748;13.452;2023-07-02T04:36:47;5.13;;;4.57;;
25331;SDS011;13284;52.748;13.452;2023-07-02T04:39:13;5.23;;;4.83;;
25331;SDS011;13284;52.748;13.452;2023-07-02T04:41:38;4.60;;;4.10;;
25331;SDS011;13284;52.748;13.452;2023-07-02T04:44:04;6.37;;;4.47;;
25331;SDS011;13284;52.748;13.452;2023-07-02T04:46:29;5.03;;;4.53;;
25331;SDS011;13284;52.748;13.452;2023-07-02T04:48:55;6.20;;;5.00;;
25331;SDS011;13284;52.748;13.452;2023-07-02T04:51:20;5.07;;;4.67;;
25331;SDS011;13284;52.748;13.452;2023-07-02T04:53:46;5.40;;;4.17;;
25331;SDS011;13284;52.748;13.452;2023-07-02T04:56:12;4.50;;;4.10;;
25331;SDS011;13284;52.748;13.452;2023-07-02T04:58:37;5.33;;;4.43;;
25331;SDS011;13284;52.748;13.452;2023-07-02T05:01:03;7.53;;;6.90;;
25331;SDS011;13284;52.748;13.452;2023-07-02T05:03:29;4.90;;;3.90;;
25331;SDS011;13284;52.748;13.452;2023-07-02T05:05:55;4.60;;;4.20;;
25331;SDS011;13284;52.748;13.452;2023-07-02T05:08:21;4.70;;;4.30;;
25331;SDS011;13284;52.748;13.452;2023-07-02T05:10:46;5.27;;;4.13;;
25331;SDS011;13284;52.748;13.452;2023-07-02T05:13:12;6.20;;;4.07;;
25331;SDS011;13284;52.748;13.452;2023-07-02T05:15:37;4.83;;;4.10;;
25331;SDS011;13284;52.748;13.452;2023-07-02T05:18:03;4.00;;;3.70;;
25331;SDS011;13284;52.748;13.452;2023-07-02T05:20:29;6.57;;;3.80;;
25331;SDS011;13284;52.748;13.452;2023-07-02T05:22:54;4.80;;;4.37;;
25331;SDS011;13284;52.748;13.452;2023-07-02T05:25:20;5.00;;;4.17;;
25331;SDS011;13284;52.748;13.452;2023-07-02T05:27:45;4.73;;;3.97;;
25331;SDS011;13284;52.748;13.452;2023-07-02T05:30:11;4.37;;;3.97;;
25331;SDS011;13284;52.748;13.452;2023-07-02T05:32:37;5.27;;;4.40;;
25331;SDS011;13284;52.748;13.452;2023-07-02T05:35:04;6.13;;;3.87;;
25331;SDS011;13284;52.748;13.452;2023-07-02T05:37:30;4.50;;;3.43;;
25331;SDS011;13284;52.748;13.452;2023-07-02T05:39:55;4.90;;;3.27;;
25331;SDS011;13284;52.748;13.452;2023-07-02T05:42:21;5.20;;;4.80;;
25331;SDS011;13284;52.748;13.452;2023-07-02T05:44:46;7.37;;;3.73;;
25331;SDS011;13284;52.748;13.452;2023-07-02T05:47:12;4.63;;;3.70;;
25331;SDS011;13284;52.748;13.452;2023-07-02T05:49:37;4.90;;;3.90;;
25331;SDS011;13284;52.748;13.452;2023-07-02T05:52:03;3.83;;;3.53;;
25331;SDS011;13284;52.748;13.452;2023-07-02T05:54:28;5.20;;;3.83;;
25331;SDS011;13284;52.748;13.452;2023-07-02T05:56:54;3.60;;;3.30;;
25331;SDS011;13284;52.748;13.452;2023-07-02T05:59:19;5.30;;;3.67;;
25331;SDS011;13284;52.748;13.452;2023-07-02T06:01:45;10.23;;;3.80;;
25331;SDS011;13284;52.748;13.452;2023-07-02T06:04:10;4.63;;;3.60;;
25331;SDS011;13284;52.748;13.452;2023-07-02T06:06:36;4.23;;;3.30;;
25331;SDS011;13284;52.748;13.452;2023-07-02T06:09:01;3.30;;;3.00;;
25331;SDS011;13284;52.748;13.452;2023-07-02T06:11:28;6.00;;;3.60;;
25331;SDS011;13284;52.748;13.452;2023-07-02T06:13:54;10.73;;;3.80;;
25331;SDS011;13284;52.748;13.452;2023-07-02T06:16:20;3.83;;;3.40;;
25331;SDS011;13284;52.748;13.452;2023-07-02T06:18:45;4.13;;;3.83;;
25331;SDS011;13284;52.748;13.452;2023-07-02T06:21:11;4.57;;;3.23;;
25331;SDS011;13284;52.748;13.452;2023-07-02T06:23:42;4.93;;;3.70;;
25331;SDS011;13284;52.748;13.452;2023-07-02T06:26:08;5.80;;;3.50;;
25331;SDS011;13284;52.748;13.452;2023-07-02T06:28:34;3.63;;;3.33;;
25331;SDS011;13284;52.748;13.452;2023-07-02T06:31:00;3.63;;;3.00;;
25331;SDS011;13284;52.748;13.452;2023-07-02T06:33:25;3.20;;;2.67;;
25331;SDS011;13284;52.748;13.452;2023-07-02T06:35:51;4.70;;;3.50;;
25331;SDS011;13284;52.748;13.452;2023-07-02T06:38:17;3.53;;;2.70;;
25331;SDS011;13284;52.748;13.452;2023-07-02T06:40:42;4.70;;;3.30;;
25331;SDS011;13284;52.748;13.452;2023-07-02T06:43:08;3.37;;;3.07;;
25331;SDS011;13284;52.748;13.452;2023-07-02T06:45:33;4.10;;;3.07;;
25331;SDS011;13284;52.748;13.452;2023-07-02T06:47:59;5.47;;;3.27;;
25331;SDS011;13284;52.748;13.452;2023-07-02T06:50:24;3.40;;;2.80;;
25331;SDS011;13284;52.748;13.452;2023-07-02T06:52:50;5.23;;;2.60;;
25331;SDS011;13284;52.748;13.452;2023-07-02T06:55:15;4.20;;;3.80;;
25331;SDS011;13284;52.748;13.452;2023-07-02T06:57:42;3.90;;;3.57;;
25331;SDS011;13284;52.748;13.452;2023-07-02T07:00:09;4.10;;;2.90;;
25331;SDS011;13284;52.748;13.452;2023-07-02T07:02:35;3.20;;;2.90;;
25331;SDS011;13284;52.748;13.452;2023-07-02T07:05:00;6.10;;;3.30;;
25331;SDS011;13284;52.748;13.452;2023-07-02T07:07:26;4.33;;;2.80;;
25331;SDS011;13284;52.748;13.452;2023-07-02T07:09:52;2.50;;;2.30;;
25331;SDS011;13284;52.748;13.452;2023-07-02T07:12:18;3.70;;;2.77;;
25331;SDS011;13284;52.748;13.452;2023-07-02T07:14:43;3.10;;;2.80;;
25331;SDS011;13284;52.748;13.452;2023-07-02T07:17:09;2.87;;;2.63;;
25331;SDS011;13284;52.748;13.452;2023-07-02T07:19:34;3.77;;;3.47;;
25331;SDS011;13284;52.748;13.452;2023-07-02T07:22:00;4.87;;;2.73;;
25331;SDS011;13284;52.748;13.452;2023-07-02T07:24:25;3.47;;;2.53;;
25331;SDS011;13284;52.748;13.452;2023-07-02T07:26:51;3.10;;;2.80;;
25331;SDS011;13284;52.748;13.452;2023-07-02T07:29:16;6.23;;;2.67;;
25331;SDS011;13284;52.748;13.452;2023-07-02T07:31:43;4.10;;;2.40;;
25331;SDS011;13284;52.748;13.452;2023-07-02T07:34:09;3.33;;;3.03;;
25331;SDS011;13284;52.748;13.452;2023-07-02T07:36:34;4.30;;;2.93;;
25331;SDS011;13284;52.748;13.452;2023-07-02T07:39:02;3.43;;;2.70;;
25331;SDS011;13284;52.748;13.452;2023-07-02T07:41:27;5.43;;;3.03;;
25331;SDS011;13284;52.748;13.452;2023-07-02T07:43:53;8.17;;;2.70;;
25331;SDS011;13284;52.748;13.452;2023-07-02T07:46:19;3.10;;;2.80;;
25331;SDS011;13284;52.748;13.452;2023-07-02T07:48:44;3.40;;;3.10;;
25331;SDS011;13284;52.748;13.452;2023-07-02T07:51:10;3.20;;;2.70;;
25331;SDS011;13284;52.748;13.452;2023-07-02T07:53:38;5.50;;;3.00;;
25331;SDS011;13284;52.748;13.452;2023-07-02T07:56:04;3.50;;;3.20;;
25331;SDS011;13284;52.748;13.452;2023-07-02T07:58:30;3.93;;;3.17;;
25331;SDS011;13284;52.748;13.452;2023-07-02T08:00:57;6.90;;;3.60;;
25331;SDS011;13284;52.748;13.452;2023-07-02T08:03:22;3.67;;;2.97;;
25331;SDS011;13284;52.748;13.452;2023-07-02T08:05:48;3.50;;;3.20;;
25331;SDS011;13284;52.748;13.452;2023-07-02T08:08:13;3.83;;;3.40;;
25331;SDS011;13284;52.748;13.452;2023-07-02T08:10:39;2.70;;;2.50;;
25331;SDS011;13284;52.748;13.452;2023-07-02T08:13:04;4.90;;;2.83;;
25331;SDS011;13284;52.748;13.452;2023-07-02T08:15:30;4.27;;;3.20;;
25331;SDS011;13284;52.748;13.452;2023-07-02T08:17:56;4.23;;;3.43;;
25331;SDS011;13284;52.748;13.452;2023-07-02T08:20:23;5.90;;;3.03;;
25331;SDS011;13284;52.748;13.452;2023-07-02T08:22:49;4.90;;;3.43;;
25331;SDS011;13284;52.748;13.452;2023-07-02T08:25:16;5.10;;;3.63;;
25331;SDS011;13284;52.748;13.452;2023-07-02T08:27:42;7.00;;;4.43;;
25331;SDS011;13284;52.748;13.452;2023-07-02T08:30:08;7.00;;;4.30;;
25331;SDS011;13284;52.748;13.452;2023-07-02T08:32:34;7.17;;;4.60;;
25331;SDS011;13284;52.748;13.452;2023-07-02T08:34:59;6.20;;;3.83;;
25331;SDS011;13284;52.748;13.452;2023-07-02T08:37:25;6.43;;;4.20;;
25331;SDS011;13284;52.748;13.452;2023-07-02T08:39:51;4.80;;;3.57;;
25331;SDS011;13284;52.748;13.452;2023-07-02T08:42:16;4.37;;;3.43;;
25331;SDS011;13284;52.748;13.452;2023-07-02T08:44:42;5.83;;;3.93;;
25331;SDS011;13284;52.748;13.452;2023-07-02T08:47:11;3.57;;;3.20;;
25331;SDS011;13284;52.748;13.452;2023-07-02T08:49:37;5.57;;;3.83;;
25331;SDS011;13284;52.748;13.452;2023-07-02T08:52:03;5.47;;;3.77;;
25331;SDS011;13284;52.748;13.452;2023-07-02T08:54:29;4.83;;;3.40;;
25331;SDS011;13284;52.748;13.452;2023-07-02T08:56:55;3.60;;;2.77;;
25331;SDS011;13284;52.748;13.452;2023-07-02T08:59:21;4.40;;;4.00;;
25331;SDS011;13284;52.748;13.452;2023-07-02T09:01:50;5.63;;;3.50;;
25331;SDS011;13284;52.748;13.452;2023-07-02T09:06:47;5.27;;;3.70;;
25331;SDS011;13284;52.748;13.452;2023-07-02T09:09:13;7.20;;;4.30;;
25331;SDS011;13284;52.748;13.452;2023-07-02T09:11:51;3.87;;;3.10;;
25331;SDS011;13284;52.748;13.452;2023-07-02T09:14:35;6.67;;;3.73;;
25331;SDS011;13284;52.748;13.452;2023-07-02T09:17:09;6.57;;;4.17;;
25331;SDS011;13284;52.748;13.452;2023-07-02T09:19:35;5.07;;;3.50;;
25331;SDS011;13284;52.748;13.452;2023-07-02T09:22:02;7.70;;;4.20;;
25331;SDS011;13284;52.748;13.452;2023-07-02T09:24:29;6.37;;;4.13;;
25331;SDS011;13284;52.748;13.452;2023-07-02T09:26:56;6.13;;;3.47;;
25331;SDS011;13284;52.748;13.452;2023-07-02T09:29:24;6.53;;;3.87;;
25331;SDS011;13284;52.748;13.452;2023-07-02T09:31:53;5.40;;;4.10;;
25331;SDS011;13284;52.748;13.452;2023-07-02T09:34:19;8.13;;;4.00;;
25331;SDS011;13284;52.748;13.452;2023-07-02T09:36:44;7.90;;;3.80;;
25331;SDS011;13284;52.748;13.452;2023-07-02T09:39:12;7.27;;;5.00;;
25331;SDS011;13284;52.748;13.452;2023-07-02T09:41:42;5.93;;;3.77;;
25331;SDS011;13284;52.748;13.452;2023-07-02T09:44:09;4.90;;;3.53;;
25331;SDS011;13284;52.748;13.452;2023-07-02T09:46:41;9.20;;;4.70;;
25331;SDS011;13284;52.748;13.452;2023-07-02T09:49:11;7.80;;;4.53;;
25331;SDS011;13284;52.748;13.452;2023-07-02T09:51:40;8.53;;;4.10;;
25331;SDS011;13284;52.748;13.452;2023-07-02T09:54:06;5.37;;;3.73;;
25331;SDS011;13284;52.748;13.452;2023-07-02T09:56:32;6.60;;;3.90;;
25331;SDS011;13284;52.748;13.452;2023-07-02T09:58:58;5.23;;;3.60;;
25331;SDS011;13284;52.748;13.452;2023-07-02T10:01:23;5.63;;;4.50;;
25331;SDS011;13284;52.748;13.452;2023-07-02T10:03:49;7.97;;;4.80;;
25331;SDS011;13284;52.748;13.452;2023-07-02T10:06:15;7.33;;;4.63;;
25331;SDS011;13284;52.748;13.452;2023-07-02T10:08:40;7.40;;;4.33;;
25331;SDS011;13284;52.748;13.452;2023-07-02T10:11:16;6.47;;;3.97;;
25331;SDS011;13284;52.748;13.452;2023-07-02T10:13:42;6.73;;;4.67;;
25331;SDS011;13284;52.748;13.452;2023-07-02T10:16:07;5.97;;;3.97;;
25331;SDS011;13284;52.748;13.452;2023-07-02T10:18:33;9.70;;;5.67;;
25331;SDS011;13284;52.748;13.452;2023-07-02T10:20:59;6.27;;;4.77;;
25331;SDS011;13284;52.748;13.452;2023-07-02T10:23:34;6.27;;;4.30;;
25331;SDS011;13284;52.748;13.452;2023-07-02T10:26:16;11.40;;;4.80;;
25331;SDS011;13284;52.748;13.452;2023-07-02T10:28:55;7.70;;;4.10;;
25331;SDS011;13284;52.748;13.452;2023-07-02T10:31:21;7.73;;;4.83;;
25331;SDS011;13284;52.748;13.452;2023-07-02T10:33:47;9.07;;;4.67;;
25331;SDS011;13284;52.748;13.452;2023-07-02T10:36:19;4.97;;;4.27;;
25331;SDS011;13284;52.748;13.452;2023-07-02T10:38:45;7.00;;;4.53;;
25331;SDS011;13284;52.748;13.452;2023-07-02T10:41:12;9.53;;;6.17;;
25331;SDS011;13284;52.748;13.452;2023-07-02T10:43:47;7.93;;;4.70;;
25331;SDS011;13284;52.748;13.452;2023-07-02T10:46:18;6.13;;;4.20;;
25331;SDS011;13284;52.748;13.452;2023-07-02T10:48:54;5.33;;;4.00;;
25331;SDS011;13284;52.748;13.452;2023-07-02T10:51:20;6.30;;;4.57;;
25331;SDS011;13284;52.748;13.452;2023-07-02T10:53:46;13.17;;;3.83;;
25331;SDS011;13284;52.748;13.452;2023-07-02T10:56:23;8.07;;;6.00;;
25331;SDS011;13284;52.748;13.452;2023-07-02T10:58:49;11.83;;;4.37;;
25331;SDS011;13284;52.748;13.452;2023-07-02T11:01:23;7.17;;;4.20;;
25331;SDS011;13284;52.748;13.452;2023-07-02T11:04:00;7.47;;;4.60;;
25331;SDS011;13284;52.748;13.452;2023-07-02T11:06:27;6.83;;;5.33;;
25331;SDS011;13284;52.748;13.452;2023-07-02T11:08:54;8.23;;;4.73;;
25331;SDS011;13284;52.748;13.452;2023-07-02T11:11:22;8.50;;;5.30;;
25331;SDS011;13284;52.748;13.452;2023-07-02T11:13:50;10.93;;;5.60;;
25331;SDS011;13284;52.748;13.452;2023-07-02T11:19:05;7.20;;;4.53;;
25331;SDS011;13284;52.748;13.452;2023-07-02T11:21:35;9.57;;;5.50;;
25331;SDS011;13284;52.748;13.452;2023-07-02T11:24:08;7.27;;;5.10;;
25331;SDS011;13284;52.748;13.452;2023-07-02T11:26:37;4.70;;;3.57;;
25331;SDS011;13284;52.748;13.452;2023-07-02T11:29:03;7.53;;;4.63;;
25331;SDS011;13284;52.748;13.452;2023-07-02T11:31:33;6.70;;;5.00;;
25331;SDS011;13284;52.748;13.452;2023-07-02T11:33:58;13.30;;;5.60;;
25331;SDS011;13284;52.748;13.452;2023-07-02T11:36:24;7.73;;;5.17;;
25331;SDS011;13284;52.748;13.452;2023-07-02T11:38:50;7.37;;;4.43;;
25331;SDS011;13284;52.748;13.452;2023-07-02T11:41:17;9.43;;;5.37;;
25331;SDS011;13284;52.748;13.452;2023-07-02T11:43:43;8.70;;;4.80;;
25331;SDS011;13284;52.748;13.452;2023-07-02T11:46:09;9.90;;;5.40;;
25331;SDS011;13284;52.748;13.452;2023-07-02T11:48:35;6.97;;;4.80;;
25331;SDS011;13284;52.748;13.452;2023-07-02T11:51:00;7.30;;;5.27;;
25331;SDS011;13284;52.748;13.452;2023-07-02T11:53:25;7.37;;;5.27;;
25331;SDS011;13284;52.748;13.452;2023-07-02T11:55:51;11.17;;;4.53;;
25331;SDS011;13284;52.748;13.452;2023-07-02T11:58:16;8.80;;;5.17;;
25331;SDS011;13284;52.748;13.452;2023-07-02T12:00:42;8.93;;;5.50;;
25331;SDS011;13284;52.748;13.452;2023-07-02T12:03:07;8.67;;;5.50;;
25331;SDS011;13284;52.748;13.452;2023-07-02T12:05:33;6.97;;;4.80;;
25331;SDS011;13284;52.748;13.452;2023-07-02T12:07:58;6.90;;;4.53;;
25331;SDS011;13284;52.748;13.452;2023-07-02T12:10:24;7.80;;;5.17;;
25331;SDS011;13284;52.748;13.452;2023-07-02T12:12:49;11.67;;;5.20;;
25331;SDS011;13284;52.748;13.452;2023-07-02T12:15:15;7.70;;;5.50;;
25331;SDS011;13284;52.748;13.452;2023-07-02T12:17:40;9.63;;;5.43;;
25331;SDS011;13284;52.748;13.452;2023-07-02T12:20:06;5.63;;;4.73;;
25331;SDS011;13284;52.748;13.452;2023-07-02T12:22:32;10.53;;;5.33;;
25331;SDS011;13284;52.748;13.452;2023-07-02T12:24:58;8.40;;;5.30;;
25331;SDS011;13284;52.748;13.452;2023-07-02T12:27:23;13.43;;;7.03;;
25331;SDS011;13284;52.748;13.452;2023-07-02T12:29:50;8.27;;;5.63;;
25331;SDS011;13284;52.748;13.452;2023-07-02T12:32:16;7.20;;;4.97;;
25331;SDS011;13284;52.748;13.452;2023-07-02T12:34:41;9.37;;;5.67;;
25331;SDS011;13284;52.748;13.452;2023-07-02T12:37:07;8.90;;;5.17;;
25331;SDS011;13284;52.748;13.452;2023-07-02T12:39:33;9.77;;;6.40;;
25331;SDS011;13284;52.748;13.452;2023-07-02T12:41:58;11.67;;;5.87;;
25331;SDS011;13284;52.748;13.452;2023-07-02T12:44:24;10.93;;;5.70;;
25331;SDS011;13284;52.748;13.452;2023-07-02T12:46:50;10.37;;;5.70;;
25331;SDS011;13284;52.748;13.452;2023-07-02T12:49:16;10.03;;;5.20;;
25331;SDS011;13284;52.748;13.452;2023-07-02T12:51:41;12.00;;;6.20;;
25331;SDS011;13284;52.748;13.452;2023-07-02T12:54:07;7.30;;;4.70;;
25331;SDS011;13284;52.748;13.452;2023-07-02T12:56:33;10.23;;;5.10;;
25331;SDS011;13284;52.748;13.452;2023-07-02T12:58:58;10.90;;;5.93;;
25331;SDS011;13284;52.748;13.452;2023-07-02T13:01:27;7.83;;;6.70;;
25331;SDS011;13284;52.748;13.452;2023-07-02T13:03:52;7.20;;;4.27;;
25331;SDS011;13284;52.748;13.452;2023-07-02T13:06:18;8.80;;;5.03;;
25331;SDS011;13284;52.748;13.452;2023-07-02T13:08:44;7.60;;;5.03;;
25331;SDS011;13284;52.748;13.452;2023-07-02T13:11:09;8.80;;;4.93;;
25331;SDS011;13284;52.748;13.452;2023-07-02T13:13:35;11.37;;;5.63;;
25331;SDS011;13284;52.748;13.452;2023-07-02T13:16:01;8.90;;;5.80;;
25331;SDS011;13284;52.748;13.452;2023-07-02T13:18:27;8.70;;;5.70;;
25331;SDS011;13284;52.748;13.452;2023-07-02T13:20:56;9.80;;;5.03;;
25331;SDS011;13284;52.748;13.452;2023-07-02T13:23:24;10.07;;;5.10;;
25331;SDS011;13284;52.748;13.452;2023-07-02T13:25:51;9.60;;;6.17;;
25331;SDS011;13284;52.748;13.452;2023-07-02T13:28:16;8.53;;;5.80;;
25331;SDS011;13284;52.748;13.452;2023-07-02T13:30:42;8.50;;;5.07;;
25331;SDS011;13284;52.748;13.452;2023-07-02T13:33:08;9.97;;;5.53;;
25331;SDS011;13284;52.748;13.452;2023-07-02T13:35:34;7.40;;;5.47;;
25331;SDS011;13284;52.748;13.452;2023-07-02T13:38:02;15.40;;;6.10;;
25331;SDS011;13284;52.748;13.452;2023-07-02T13:40:29;8.03;;;4.90;;
25331;SDS011;13284;52.748;13.452;2023-07-02T13:43:01;7.93;;;5.50;;
25331;SDS011;13284;52.748;13.452;2023-07-02T13:45:28;6.77;;;4.70;;
25331;SDS011;13284;52.748;13.452;2023-07-02T13:47:53;8.90;;;5.37;;
25331;SDS011;13284;52.748;13.452;2023-07-02T13:50:19;8.17;;;4.60;;
25331;SDS011;13284;52.748;13.452;2023-07-02T13:52:45;6.23;;;4.63;;
25331;SDS011;13284;52.748;13.452;2023-07-02T13:55:11;6.93;;;4.90;;
25331;SDS011;13284;52.748;13.452;2023-07-02T13:57:37;8.30;;;5.60;;
25331;SDS011;13284;52.748;13.452;2023-07-02T14:00:03;14.43;;;5.27;;
25331;SDS011;13284;52.748;13.452;2023-07-02T14:02:30;10.33;;;5.63;;
25331;SDS011;13284;52.748;13.452;2023-07-02T14:04:57;7.20;;;4.57;;
25331;SDS011;13284;52.748;13.452;2023-07-02T14:07:23;9.33;;;3.87;;
25331;SDS011;13284;52.748;13.452;2023-07-02T14:09:49;6.00;;;4.77;;
25331;SDS011;13284;52.748;13.452;2023-07-02T14:12:15;10.43;;;5.83;;
25331;SDS011;13284;52.748;13.452;2023-07-02T14:14:41;13.30;;;5.27;;
25331;SDS011;13284;52.748;13.452;2023-07-02T14:17:07;7.60;;;5.30;;
25331;SDS011;13284;52.748;13.452;2023-07-02T14:19:33;9.53;;;4.87;;
25331;SDS011;13284;52.748;13.452;2023-07-02T14:21:58;7.60;;;4.57;;
25331;SDS011;13284;52.748;13.452;2023-07-02T14:24:24;7.73;;;5.20;;
25331;SDS011;13284;52.748;13.452;2023-07-02T14:26:51;6.70;;;4.63;;
25331;SDS011;13284;52.748;13.452;2023-07-02T14:29:17;8.43;;;4.83;;
25331;SDS011;13284;52.748;13.452;2023-07-02T14:31:42;10.43;;;5.03;;
25331;SDS011;13284;52.748;13.452;2023-07-02T14:34:08;7.53;;;5.07;;
25331;SDS011;13284;52.748;13.452;2023-07-02T14:36:34;8.20;;;4.83;;